ENLK Airport Information

Runway Information
Runway 03 Length 2881 ft width 0 ft
Elevation 71 ft Threshold 0 ft Heading 0
Runway 21 Length 2881 ft Width 0 ft
Elevation 72 ft Threshold 0 ft Heading 0
Airport Frequencies
Airport Navaids
Type NDB Name Sandsund Frequency 348 KHZ
Airport Weather Information & NOTAM
ADDS - METARS form results

(0606 UTC 21 July 2018)
 
METAR text: ENLK 210550Z 31007KT CAVOK 13/12 Q1009
Conditions at: ENLK (LEKNES , NO) observed 0550 UTC 21 July 2018
Temperature: 13.0°C (55°F)
Dewpoint: 12.0°C (54°F) [RH = 94%]
Pressure (altimeter): 29.79 inches Hg (1009.0 mb)
Winds: from the NW (310 degrees) at 8 MPH (7 knots; 3.6 m/s)
Visibility: 6 or more miles (10+ km)
Ceiling: ceiling and visibility are OK
Clouds: unknown
Weather: no significant weather observed at this time

METAR text: ENLK 210520Z 31006KT CAVOK 13/12 Q1009
Conditions at: ENLK (LEKNES , NO) observed 0520 UTC 21 July 2018
Temperature: 13.0°C (55°F)
Dewpoint: 12.0°C (54°F) [RH = 94%]
Pressure (altimeter): 29.79 inches Hg (1009.0 mb)
Winds: from the NW (310 degrees) at 7 MPH (6 knots; 3.1 m/s)
Visibility: 6 or more miles (10+ km)
Ceiling: ceiling and visibility are OK
Clouds: unknown
Weather: no significant weather observed at this time